createdAt,value
2018-08-08T00:01:02.189Z,7.50
2018-08-08T00:05:59.052Z,8.50
2018-08-08T00:10:56.635Z,7.90
2018-08-08T00:15:53.402Z,10.48
2018-08-08T00:20:50.385Z,8.58
2018-08-08T00:25:47.045Z,7.90
2018-08-08T00:30:44.074Z,8.20
2018-08-08T00:35:40.911Z,11.90
2018-08-08T00:40:37.793Z,9.03
2018-08-08T00:45:34.525Z,12.10
2018-08-08T00:50:31.471Z,8.28
2018-08-08T00:55:28.377Z,8.55
2018-08-08T01:00:25.140Z,9.30
2018-08-08T01:05:22.093Z,10.03
2018-08-08T01:10:19.152Z,10.38
2018-08-08T01:15:16.344Z,10.08
2018-08-08T01:20:14.631Z,10.80
2018-08-08T01:25:12.611Z,10.80
2018-08-08T01:30:10.343Z,9.33
2018-08-08T01:35:07.757Z,10.03
2018-08-08T01:40:06.604Z,9.70
2018-08-08T01:45:04.542Z,10.40
2018-08-08T01:50:01.613Z,10.23
2018-08-08T01:54:58.384Z,12.53
2018-08-08T01:59:55.337Z,11.50
2018-08-08T02:04:52.076Z,11.00
2018-08-08T02:09:49.049Z,12.00
2018-08-08T02:14:45.777Z,11.80
2018-08-08T02:19:42.783Z,15.65
2018-08-08T02:24:40.191Z,12.43
2018-08-08T02:29:37.172Z,13.50
2018-08-08T02:34:33.873Z,11.88
2018-08-08T02:39:31.587Z,12.60
2018-08-08T02:44:28.291Z,11.25
2018-08-08T02:49:25.361Z,12.07
2018-08-08T02:54:22.081Z,12.28
2018-08-08T02:59:20.813Z,16.35
2018-08-08T03:04:17.766Z,13.50
2018-08-08T03:09:14.545Z,13.03
2018-08-08T03:14:11.491Z,12.45
2018-08-08T03:19:08.466Z,11.38
2018-08-08T03:24:04.875Z,12.13
2018-08-08T03:29:01.897Z,12.13
2018-08-08T03:33:58.569Z,14.35
2018-08-08T03:38:55.493Z,12.10
2018-08-08T03:43:52.204Z,12.50
2018-08-08T03:48:49.423Z,11.90
2018-08-08T03:53:46.179Z,13.22
2018-08-08T03:58:43.146Z,15.25
2018-08-08T04:03:40.192Z,12.93
2018-08-08T04:08:36.937Z,12.07
2018-08-08T04:13:34.238Z,11.53
2018-08-08T04:18:30.957Z,11.80
2018-08-08T04:23:28.859Z,12.60
2018-08-08T04:28:25.968Z,11.90
2018-08-08T04:33:23.315Z,11.60
2018-08-08T04:38:20.038Z,13.30
2018-08-08T04:43:16.961Z,11.50
2018-08-08T04:48:13.775Z,12.07
2018-08-08T04:53:10.849Z,10.58
2018-08-08T04:58:07.643Z,10.95
2018-08-08T05:03:04.874Z,10.85
2018-08-08T05:08:01.622Z,9.53
2018-08-08T05:12:58.496Z,10.25
2018-08-08T05:17:55.216Z,11.08
2018-08-08T05:22:52.128Z,12.68
2018-08-08T05:27:48.932Z,9.75
2018-08-08T05:32:46.764Z,11.45
2018-08-08T05:37:44.421Z,8.60
2018-08-08T05:42:41.306Z,9.63
2018-08-08T05:47:37.989Z,8.75
2018-08-08T05:52:34.919Z,14.73
2018-08-08T05:57:31.739Z,9.75
2018-08-08T06:02:29.053Z,8.70
2018-08-08T06:07:25.901Z,10.75
2018-08-08T06:12:22.966Z,9.13
2018-08-08T06:17:19.709Z,8.65
2018-08-08T06:22:16.686Z,9.60
2018-08-08T06:27:13.656Z,9.73
2018-08-08T06:32:10.388Z,10.05
2018-08-08T06:37:08.303Z,12.45
2018-08-08T06:42:05.646Z,10.72
2018-08-08T06:47:02.393Z,12.28
2018-08-08T06:51:59.207Z,10.72
2018-08-08T06:56:56.264Z,10.60
2018-08-08T07:01:53.305Z,12.63
2018-08-08T07:06:50.111Z,14.87
2018-08-08T07:11:47.120Z,10.10
2018-08-08T07:16:43.817Z,11.05
2018-08-08T07:21:40.733Z,10.18
2018-08-08T07:26:37.569Z,11.73
2018-08-08T07:31:35.406Z,11.08
2018-08-08T07:36:32.156Z,14.43
2018-08-08T07:41:29.807Z,9.53
2018-08-08T07:46:26.529Z,10.95
2018-08-08T07:51:23.481Z,11.12
2018-08-08T07:56:20.237Z,11.08
2018-08-08T08:01:17.244Z,14.03
2018-08-08T08:06:13.962Z,9.20
2018-08-08T08:11:11.098Z,9.15
2018-08-08T08:16:07.836Z,9.23
2018-08-08T08:21:04.891Z,12.07
2018-08-08T08:26:01.693Z,9.28
2018-08-08T08:30:58.422Z,13.35
2018-08-08T08:35:55.412Z,9.23
2018-08-08T08:40:52.273Z,11.68
2018-08-08T08:45:50.329Z,9.68
2018-08-08T08:50:46.667Z,9.18
2018-08-08T08:55:43.606Z,7.05
2018-08-08T09:00:40.329Z,7.92
2018-08-08T09:05:37.240Z,7.40
2018-08-08T09:10:34.003Z,12.90
2018-08-08T09:15:31.163Z,7.78
2018-08-08T09:20:27.899Z,8.75
2018-08-08T09:25:24.819Z,11.88
2018-08-08T09:30:22.033Z,11.70
2018-08-08T09:35:18.833Z,20.23
2018-08-08T09:40:15.944Z,15.25
2018-08-08T09:45:12.845Z,19.52
2018-08-08T09:50:10.690Z,14.23
2018-08-08T09:55:07.542Z,16.37
2018-08-08T10:00:05.165Z,18.45
2018-08-08T10:05:01.934Z,17.98
2018-08-08T10:09:59.193Z,17.15
2018-08-08T10:14:56.257Z,16.00
2018-08-08T10:19:53.037Z,14.80
2018-08-08T10:24:50.458Z,14.98
2018-08-08T10:29:47.221Z,14.03
2018-08-08T10:34:44.193Z,17.05
2018-08-08T10:39:40.994Z,16.50
2018-08-08T10:44:39.076Z,17.35
2018-08-08T10:49:35.745Z,15.35
2018-08-08T10:54:33.021Z,18.25
2018-08-08T10:59:29.804Z,15.98
2018-08-08T11:04:26.914Z,13.80
2018-08-08T11:09:23.666Z,11.60
2018-08-08T11:14:20.427Z,13.80
2018-08-08T11:19:17.264Z,18.48
2018-08-08T11:24:13.965Z,13.88
2018-08-08T11:29:10.987Z,13.60
2018-08-08T11:34:07.733Z,14.43
2018-08-08T11:39:06.254Z,17.17
2018-08-08T11:44:03.209Z,15.15
2018-08-08T11:48:59.909Z,13.58
2018-08-08T11:53:57.023Z,16.87
2018-08-08T11:58:54.195Z,15.00
2018-08-08T12:03:50.930Z,18.02
2018-08-08T12:08:47.880Z,14.07
2018-08-08T12:13:44.549Z,12.00
2018-08-08T12:18:41.641Z,12.45
2018-08-08T12:23:38.337Z,13.68
2018-08-08T12:28:35.470Z,16.67
2018-08-08T12:33:32.201Z,10.68
2018-08-08T12:38:29.185Z,10.95
2018-08-08T12:43:25.921Z,11.73
2018-08-08T12:48:22.842Z,16.10
2018-08-08T12:53:19.543Z,9.88
2018-08-08T12:58:16.621Z,14.63
2018-08-08T13:03:13.313Z,15.00
2018-08-08T13:08:10.246Z,16.30
2018-08-08T13:13:07.813Z,12.05
2018-08-08T13:18:04.649Z,9.73
2018-08-08T13:23:02.448Z,11.73
2018-08-08T13:27:59.223Z,10.03
2018-08-08T13:32:56.176Z,8.55
2018-08-08T13:37:53.335Z,7.33
2018-08-08T13:42:50.180Z,5.53
2018-08-08T13:47:47.269Z,5.92
2018-08-08T13:52:43.995Z,6.10
2018-08-08T13:57:41.014Z,9.85
2018-08-08T14:02:37.745Z,11.00
2018-08-08T14:07:34.773Z,8.70
2018-08-08T14:12:31.522Z,6.28
2018-08-08T14:17:28.430Z,8.20
2018-08-08T14:22:25.090Z,8.48
2018-08-08T14:27:22.150Z,8.93
2018-08-08T14:32:18.849Z,8.28
2018-08-08T14:37:15.968Z,7.58
2018-08-08T14:42:12.742Z,9.08
2018-08-08T14:47:09.817Z,9.80
2018-08-08T14:52:06.600Z,19.07
2018-08-08T14:57:03.711Z,7.75
2018-08-08T15:02:00.458Z,8.38
2018-08-08T15:06:57.647Z,8.43
2018-08-08T15:11:54.427Z,9.60
2018-08-08T15:16:51.367Z,7.40
2018-08-08T15:21:48.303Z,7.30
2018-08-08T15:26:45.237Z,10.38
2018-08-08T15:31:42.454Z,6.55
2018-08-08T15:36:39.230Z,7.60
2018-08-08T15:41:36.071Z,7.67
2018-08-08T15:46:32.819Z,6.70
2018-08-08T15:51:30.109Z,10.35
2018-08-08T15:56:27.161Z,9.43
2018-08-08T16:01:24.555Z,9.15
2018-08-08T16:06:21.628Z,10.05
2018-08-08T16:11:18.398Z,11.22
2018-08-08T16:16:15.387Z,6.97
2018-08-08T16:21:12.270Z,10.82
2018-08-08T16:26:08.935Z,10.03
2018-08-08T16:31:06.435Z,12.30
2018-08-08T16:36:03.131Z,12.85
2018-08-08T16:41:00.117Z,12.28
2018-08-08T16:45:56.859Z,9.03
2018-08-08T16:50:54.264Z,11.05
2018-08-08T16:55:50.974Z,8.43
2018-08-08T17:00:47.955Z,18.42
2018-08-08T17:05:44.919Z,15.08
2018-08-08T17:10:41.888Z,10.90
2018-08-08T17:15:38.605Z,13.75
2018-08-08T17:20:35.849Z,17.25
2018-08-08T17:25:32.593Z,6.83
2018-08-08T17:30:29.533Z,9.68
2018-08-08T17:35:27.121Z,9.75
2018-08-08T17:40:24.104Z,14.33
2018-08-08T17:45:21.132Z,13.13
2018-08-08T17:50:17.908Z,17.30
2018-08-08T17:55:14.875Z,10.15
2018-08-08T18:00:11.623Z,9.45
2018-08-08T18:05:08.527Z,10.38
2018-08-08T18:15:10.381Z,12.25
2018-08-08T18:20:07.478Z,14.33
2018-08-08T18:25:04.408Z,9.10
2018-08-08T18:30:01.801Z,8.85
2018-08-08T18:34:58.909Z,11.03
2018-08-08T18:39:55.908Z,9.88
2018-08-08T18:44:52.621Z,10.40
2018-08-08T18:49:49.642Z,11.25
2018-08-08T18:54:46.388Z,10.00
2018-08-08T18:59:43.471Z,11.48
2018-08-08T19:04:40.199Z,13.22
2018-08-08T19:09:37.178Z,15.75
2018-08-08T19:14:33.962Z,11.60
2018-08-08T19:19:31.192Z,10.82
2018-08-08T19:24:27.971Z,12.37
2018-08-08T19:29:25.012Z,9.50
2018-08-08T19:34:22.407Z,12.73
2018-08-08T19:39:19.181Z,9.33
2018-08-08T19:44:15.929Z,13.80
2018-08-08T19:49:12.937Z,13.32
2018-08-08T19:54:09.672Z,9.20
2018-08-08T19:59:06.540Z,10.95
2018-08-08T20:04:03.593Z,14.60
2018-08-08T20:09:00.941Z,14.47
2018-08-08T20:13:57.822Z,13.95
2018-08-08T20:18:54.962Z,15.48
2018-08-08T20:23:51.696Z,15.23
2018-08-08T20:28:48.666Z,12.82
2018-08-08T20:33:45.437Z,15.08
2018-08-08T20:38:42.700Z,14.38
2018-08-08T20:43:39.435Z,14.78
2018-08-08T20:48:36.625Z,14.75
2018-08-08T20:53:33.318Z,18.20
2018-08-08T20:58:30.318Z,12.53
2018-08-08T21:03:27.028Z,11.12
2018-08-08T21:08:24.265Z,13.55
2018-08-08T21:13:21.002Z,19.85
2018-08-08T21:18:18.390Z,26.00
2018-08-08T21:23:15.144Z,32.45
2018-08-08T21:28:12.326Z,45.15
2018-08-08T21:33:09.041Z,20.85
2018-08-08T21:38:06.160Z,13.25
2018-08-08T21:43:03.291Z,14.23
2018-08-08T21:47:59.979Z,12.25
2018-08-08T21:52:57.220Z,14.63
2018-08-08T21:57:59.724Z,16.62
2018-08-08T22:03:02.188Z,18.30
2018-08-08T22:08:04.660Z,15.38
2018-08-08T22:13:07.836Z,15.65
2018-08-08T22:18:10.709Z,15.50
2018-08-08T22:23:07.411Z,19.27
2018-08-08T22:28:04.769Z,13.15
2018-08-08T22:33:01.525Z,13.25
2018-08-08T22:37:58.445Z,13.08
2018-08-08T22:42:55.212Z,12.47
2018-08-08T22:47:52.172Z,15.88
2018-08-08T22:52:49.159Z,13.30
2018-08-08T22:57:46.088Z,14.87
2018-08-08T23:02:42.750Z,15.15
2018-08-08T23:07:39.839Z,17.60
2018-08-08T23:12:36.837Z,17.00
2018-08-08T23:17:33.744Z,18.00
2018-08-08T23:22:36.427Z,20.60
2018-08-08T23:27:33.212Z,33.63
2018-08-08T23:32:30.118Z,20.45
2018-08-08T23:37:27.016Z,15.18
2018-08-08T23:42:23.766Z,17.40
2018-08-08T23:47:20.741Z,13.35
2018-08-08T23:52:17.518Z,16.60
2018-08-08T23:57:15.068Z,16.10
